Pedro Luro, Argentina
Current Conditions -  °F | °C
As of 5:00 PM on Thursday 23 Oct 2014 (Local Time) from SAZN Reporting Station
Clear Clear  
Wind Chill: 86°   Ceiling: Unl
Heat Index: 86°   Visibility: 6mi
Dew Point: 52°   Wind: 3mph
Humidity: 31%   Direction: 160°SSE
Pressure: 29.91"   Gusts: NA
Location:  39.48°S, 62.68°W
Report Text: SAZN 232000Z 16003KT CAVOK 30/11 Q1013
Loading
Personal Weather Stations






























Interactive Weather Map New forecast layout! Learn more

10-Day Weather Forecast

Advertisements
Track Severe Weather on mobile